Terminal Aerodrome Forecast
Issued by NWS

Home | Current Version | Previous Version | Text Only | Print | Product List | Glossary On
Versions: 1 2 3 4 5 6 7 8 9 10 11 12 13 14 15 16 17
103
FTUS41 KILN 262347 CCA
TAFLCK
TAF COR
KLCK 262347Z 2700/2724 VRB03KT P6SM FEW160
     FM270300 VRB03KT P6SM SHRA BKN090
      TEMPO 2704/2706 4SM TSRA OVC025CB
     FM270900 13005KT P6SM VCSH BKN018
     FM271800 02006KT P6SM BKN025=

USA.gov is the U.S. government's official web portal to all federal, state and local government web resources and services.